sensor_id;sensor_type;location;lat;lon;timestamp;temperature;humidity
39601;DHT22;25297;44.758;11.310;2023-04-04T00:02:10;12.60;64.90
39601;DHT22;25297;44.758;11.310;2023-04-04T00:04:36;12.70;64.80
39601;DHT22;25297;44.758;11.310;2023-04-04T00:07:01;12.60;64.70
39601;DHT22;25297;44.758;11.310;2023-04-04T00:09:27;12.70;64.50
39601;DHT22;25297;44.758;11.310;2023-04-04T00:11:53;12.60;63.60
39601;DHT22;25297;44.758;11.310;2023-04-04T00:14:18;12.60;63.90
39601;DHT22;25297;44.758;11.310;2023-04-04T00:16:44;12.70;63.60
39601;DHT22;25297;44.758;11.310;2023-04-04T00:19:10;12.70;63.80
39601;DHT22;25297;44.758;11.310;2023-04-04T00:21:38;12.70;63.50
39601;DHT22;25297;44.758;11.310;2023-04-04T00:24:05;12.70;63.50
39601;DHT22;25297;44.758;11.310;2023-04-04T00:26:30;12.80;63.90
39601;DHT22;25297;44.758;11.310;2023-04-04T00:28:56;12.80;63.60
39601;DHT22;25297;44.758;11.310;2023-04-04T00:31:22;12.80;64.50
39601;DHT22;25297;44.758;11.310;2023-04-04T00:33:47;12.80;64.90
39601;DHT22;25297;44.758;11.310;2023-04-04T00:36:13;12.80;65.00
39601;DHT22;25297;44.758;11.310;2023-04-04T00:38:39;12.80;64.90
39601;DHT22;25297;44.758;11.310;2023-04-04T00:41:04;12.70;64.70
39601;DHT22;25297;44.758;11.310;2023-04-04T00:43:31;12.70;64.90
39601;DHT22;25297;44.758;11.310;2023-04-04T00:45:57;12.70;65.10
39601;DHT22;25297;44.758;11.310;2023-04-04T00:48:23;12.60;65.20
39601;DHT22;25297;44.758;11.310;2023-04-04T00:50:49;12.60;65.20
39601;DHT22;25297;44.758;11.310;2023-04-04T00:53:15;12.60;65.40
39601;DHT22;25297;44.758;11.310;2023-04-04T00:55:40;12.50;65.20
39601;DHT22;25297;44.758;11.310;2023-04-04T00:58:08;12.50;65.00
39601;DHT22;25297;44.758;11.310;2023-04-04T01:00:35;12.50;63.80
39601;DHT22;25297;44.758;11.310;2023-04-04T01:03:01;12.60;63.20
39601;DHT22;25297;44.758;11.310;2023-04-04T01:05:30;12.60;62.50
39601;DHT22;25297;44.758;11.310;2023-04-04T01:07:56;12.60;61.90
39601;DHT22;25297;44.758;11.310;2023-04-04T01:10:21;12.50;61.70
39601;DHT22;25297;44.758;11.310;2023-04-04T01:12:47;12.50;61.80
39601;DHT22;25297;44.758;11.310;2023-04-04T01:15:13;12.40;61.60
39601;DHT22;25297;44.758;11.310;2023-04-04T01:17:39;12.40;61.50
39601;DHT22;25297;44.758;11.310;2023-04-04T01:20:06;12.40;61.40
39601;DHT22;25297;44.758;11.310;2023-04-04T01:22:36;12.40;61.80
39601;DHT22;25297;44.758;11.310;2023-04-04T01:25:04;12.40;61.60
39601;DHT22;25297;44.758;11.310;2023-04-04T01:27:31;12.40;61.50
39601;DHT22;25297;44.758;11.310;2023-04-04T01:29:57;12.40;61.50
39601;DHT22;25297;44.758;11.310;2023-04-04T01:38:28;12.30;61.70
39601;DHT22;25297;44.758;11.310;2023-04-04T01:41:00;12.30;61.50
39601;DHT22;25297;44.758;11.310;2023-04-04T01:43:29;12.30;61.40
39601;DHT22;25297;44.758;11.310;2023-04-04T01:45:54;12.20;61.30
39601;DHT22;25297;44.758;11.310;2023-04-04T01:48:20;12.20;61.10
39601;DHT22;25297;44.758;11.310;2023-04-04T01:50:46;12.20;61.20
39601;DHT22;25297;44.758;11.310;2023-04-04T01:53:12;12.20;61.30
39601;DHT22;25297;44.758;11.310;2023-04-04T01:55:37;12.10;61.20
39601;DHT22;25297;44.758;11.310;2023-04-04T01:58:03;12.10;61.00
39601;DHT22;25297;44.758;11.310;2023-04-04T02:00:29;12.10;61.00
39601;DHT22;25297;44.758;11.310;2023-04-04T02:02:54;12.10;60.90
39601;DHT22;25297;44.758;11.310;2023-04-04T02:05:20;12.10;60.70
39601;DHT22;25297;44.758;11.310;2023-04-04T02:07:47;12.10;61.00
39601;DHT22;25297;44.758;11.310;2023-04-04T02:10:14;12.10;61.00
39601;DHT22;25297;44.758;11.310;2023-04-04T02:12:40;12.10;60.70
39601;DHT22;25297;44.758;11.310;2023-04-04T02:15:06;12.10;60.60
39601;DHT22;25297;44.758;11.310;2023-04-04T02:17:32;12.10;61.10
39601;DHT22;25297;44.758;11.310;2023-04-04T02:19:59;12.10;60.90
39601;DHT22;25297;44.758;11.310;2023-04-04T02:22:24;12.20;61.00
39601;DHT22;25297;44.758;11.310;2023-04-04T02:24:50;12.10;60.90
39601;DHT22;25297;44.758;11.310;2023-04-04T02:27:15;12.10;60.80
39601;DHT22;25297;44.758;11.310;2023-04-04T02:29:41;12.10;60.50
39601;DHT22;25297;44.758;11.310;2023-04-04T02:32:07;12.10;60.50
39601;DHT22;25297;44.758;11.310;2023-04-04T02:34:32;12.10;60.00
39601;DHT22;25297;44.758;11.310;2023-04-04T02:36:58;12.10;60.00
39601;DHT22;25297;44.758;11.310;2023-04-04T02:39:23;12.10;60.20
39601;DHT22;25297;44.758;11.310;2023-04-04T02:41:49;12.00;59.70
39601;DHT22;25297;44.758;11.310;2023-04-04T02:44:15;12.00;59.90
39601;DHT22;25297;44.758;11.310;2023-04-04T02:46:41;12.00;59.40
39601;DHT22;25297;44.758;11.310;2023-04-04T02:49:06;11.90;59.20
39601;DHT22;25297;44.758;11.310;2023-04-04T02:51:32;11.90;58.60
39601;DHT22;25297;44.758;11.310;2023-04-04T02:53:59;11.90;58.30
39601;DHT22;25297;44.758;11.310;2023-04-04T02:56:25;11.80;58.20
39601;DHT22;25297;44.758;11.310;2023-04-04T02:58:51;11.80;57.90
39601;DHT22;25297;44.758;11.310;2023-04-04T03:01:16;11.80;58.20
39601;DHT22;25297;44.758;11.310;2023-04-04T03:03:42;11.80;58.30
39601;DHT22;25297;44.758;11.310;2023-04-04T03:06:08;11.70;58.10
39601;DHT22;25297;44.758;11.310;2023-04-04T03:08:33;11.70;57.80
39601;DHT22;25297;44.758;11.310;2023-04-04T03:11:01;11.70;58.10
39601;DHT22;25297;44.758;11.310;2023-04-04T03:13:27;11.70;58.20
39601;DHT22;25297;44.758;11.310;2023-04-04T03:16:03;11.60;57.80
39601;DHT22;25297;44.758;11.310;2023-04-04T03:18:30;11.60;57.80
39601;DHT22;25297;44.758;11.310;2023-04-04T03:20:57;11.60;57.80
39601;DHT22;25297;44.758;11.310;2023-04-04T03:23:23;11.60;58.10
39601;DHT22;25297;44.758;11.310;2023-04-04T03:25:49;11.50;58.20
39601;DHT22;25297;44.758;11.310;2023-04-04T03:28:15;11.60;58.60
39601;DHT22;25297;44.758;11.310;2023-04-04T03:30:41;11.50;58.30
39601;DHT22;25297;44.758;11.310;2023-04-04T03:33:07;11.50;58.10
39601;DHT22;25297;44.758;11.310;2023-04-04T03:35:40;11.50;58.10
39601;DHT22;25297;44.758;11.310;2023-04-04T03:38:07;11.50;58.60
39601;DHT22;25297;44.758;11.310;2023-04-04T03:40:34;11.40;58.40
39601;DHT22;25297;44.758;11.310;2023-04-04T03:43:00;11.40;58.80
39601;DHT22;25297;44.758;11.310;2023-04-04T03:45:27;11.40;59.00
39601;DHT22;25297;44.758;11.310;2023-04-04T03:47:54;11.40;59.10
39601;DHT22;25297;44.758;11.310;2023-04-04T03:50:20;11.40;58.90
39601;DHT22;25297;44.758;11.310;2023-04-04T03:52:46;11.40;59.00
39601;DHT22;25297;44.758;11.310;2023-04-04T03:55:12;11.40;58.80
39601;DHT22;25297;44.758;11.310;2023-04-04T03:57:37;11.40;58.90
39601;DHT22;25297;44.758;11.310;2023-04-04T04:00:04;11.40;58.90
39601;DHT22;25297;44.758;11.310;2023-04-04T04:02:29;11.40;58.70
39601;DHT22;25297;44.758;11.310;2023-04-04T04:04:55;11.40;58.40
39601;DHT22;25297;44.758;11.310;2023-04-04T04:07:21;11.50;58.50
39601;DHT22;25297;44.758;11.310;2023-04-04T04:09:46;11.40;58.70
39601;DHT22;25297;44.758;11.310;2023-04-04T04:12:12;11.40;58.40
39601;DHT22;25297;44.758;11.310;2023-04-04T04:14:38;11.50;58.60
39601;DHT22;25297;44.758;11.310;2023-04-04T04:17:03;11.50;58.90
39601;DHT22;25297;44.758;11.310;2023-04-04T04:19:30;11.60;58.90
39601;DHT22;25297;44.758;11.310;2023-04-04T04:21:55;11.60;58.80
39601;DHT22;25297;44.758;11.310;2023-04-04T04:24:21;11.50;58.50
39601;DHT22;25297;44.758;11.310;2023-04-04T04:26:47;11.50;58.60
39601;DHT22;25297;44.758;11.310;2023-04-04T04:29:12;11.50;58.70
39601;DHT22;25297;44.758;11.310;2023-04-04T04:31:38;11.60;58.70
39601;DHT22;25297;44.758;11.310;2023-04-04T04:34:05;11.60;58.60
39601;DHT22;25297;44.758;11.310;2023-04-04T04:36:31;11.60;58.80
39601;DHT22;25297;44.758;11.310;2023-04-04T04:38:57;11.60;58.90
39601;DHT22;25297;44.758;11.310;2023-04-04T04:41:23;11.60;59.10
39601;DHT22;25297;44.758;11.310;2023-04-04T04:43:48;11.50;59.30
39601;DHT22;25297;44.758;11.310;2023-04-04T04:46:14;11.40;59.70
39601;DHT22;25297;44.758;11.310;2023-04-04T04:48:39;11.40;60.00
39601;DHT22;25297;44.758;11.310;2023-04-04T04:51:05;11.30;60.20
39601;DHT22;25297;44.758;11.310;2023-04-04T04:53:31;11.10;60.40
39601;DHT22;25297;44.758;11.310;2023-04-04T04:55:57;11.00;60.80
39601;DHT22;25297;44.758;11.310;2023-04-04T04:58:22;10.80;61.10
39601;DHT22;25297;44.758;11.310;2023-04-04T05:00:48;10.70;61.60
39601;DHT22;25297;44.758;11.310;2023-04-04T05:03:14;10.60;62.00
39601;DHT22;25297;44.758;11.310;2023-04-04T05:05:42;10.60;61.90
39601;DHT22;25297;44.758;11.310;2023-04-04T05:08:07;10.50;62.40
39601;DHT22;25297;44.758;11.310;2023-04-04T05:10:33;10.40;62.60
39601;DHT22;25297;44.758;11.310;2023-04-04T05:12:59;10.30;62.30
39601;DHT22;25297;44.758;11.310;2023-04-04T05:15:24;10.20;62.30
39601;DHT22;25297;44.758;11.310;2023-04-04T05:17:53;10.20;62.50
39601;DHT22;25297;44.758;11.310;2023-04-04T05:20:19;10.10;62.60
39601;DHT22;25297;44.758;11.310;2023-04-04T05:22:45;10.20;62.40
39601;DHT22;25297;44.758;11.310;2023-04-04T05:25:12;10.20;62.90
39601;DHT22;25297;44.758;11.310;2023-04-04T05:27:38;10.20;63.10
39601;DHT22;25297;44.758;11.310;2023-04-04T05:30:05;10.20;63.80
39601;DHT22;25297;44.758;11.310;2023-04-04T05:32:32;10.20;64.00
39601;DHT22;25297;44.758;11.310;2023-04-04T05:34:58;10.30;63.80
39601;DHT22;25297;44.758;11.310;2023-04-04T05:37:23;10.30;63.90
39601;DHT22;25297;44.758;11.310;2023-04-04T05:39:49;10.30;64.10
39601;DHT22;25297;44.758;11.310;2023-04-04T05:42:15;10.30;64.60
39601;DHT22;25297;44.758;11.310;2023-04-04T05:44:41;10.30;64.50
39601;DHT22;25297;44.758;11.310;2023-04-04T05:47:07;10.30;64.50
39601;DHT22;25297;44.758;11.310;2023-04-04T05:49:32;10.20;64.50
39601;DHT22;25297;44.758;11.310;2023-04-04T05:51:58;10.20;64.70
39601;DHT22;25297;44.758;11.310;2023-04-04T05:54:24;10.20;64.90
39601;DHT22;25297;44.758;11.310;2023-04-04T05:56:49;10.20;65.20
39601;DHT22;25297;44.758;11.310;2023-04-04T05:59:15;10.20;65.20
39601;DHT22;25297;44.758;11.310;2023-04-04T06:01:42;10.30;65.40
39601;DHT22;25297;44.758;11.310;2023-04-04T06:04:07;10.30;64.70
39601;DHT22;25297;44.758;11.310;2023-04-04T06:06:34;10.40;63.70
39601;DHT22;25297;44.758;11.310;2023-04-04T06:09:00;10.60;63.00
39601;DHT22;25297;44.758;11.310;2023-04-04T06:11:25;10.70;61.70
39601;DHT22;25297;44.758;11.310;2023-04-04T06:13:52;10.80;61.50
39601;DHT22;25297;44.758;11.310;2023-04-04T06:16:19;10.90;61.20
39601;DHT22;25297;44.758;11.310;2023-04-04T06:18:46;11.00;60.80
39601;DHT22;25297;44.758;11.310;2023-04-04T06:21:11;11.10;59.60
39601;DHT22;25297;44.758;11.310;2023-04-04T06:23:40;11.20;60.30
39601;DHT22;25297;44.758;11.310;2023-04-04T06:26:06;11.20;60.20
39601;DHT22;25297;44.758;11.310;2023-04-04T06:28:32;11.30;60.10
39601;DHT22;25297;44.758;11.310;2023-04-04T06:30:58;11.40;60.40
39601;DHT22;25297;44.758;11.310;2023-04-04T06:33:24;11.50;59.50
39601;DHT22;25297;44.758;11.310;2023-04-04T06:35:50;11.60;59.80
39601;DHT22;25297;44.758;11.310;2023-04-04T06:38:15;11.60;59.00
39601;DHT22;25297;44.758;11.310;2023-04-04T06:40:41;11.70;58.60
39601;DHT22;25297;44.758;11.310;2023-04-04T06:43:07;11.70;59.40
39601;DHT22;25297;44.758;11.310;2023-04-04T06:45:33;11.80;59.60
39601;DHT22;25297;44.758;11.310;2023-04-04T06:48:00;11.90;59.30
39601;DHT22;25297;44.758;11.310;2023-04-04T06:50:29;12.00;58.90
39601;DHT22;25297;44.758;11.310;2023-04-04T06:52:55;11.90;58.50
39601;DHT22;25297;44.758;11.310;2023-04-04T06:55:21;12.00;58.90
39601;DHT22;25297;44.758;11.310;2023-04-04T06:57:47;12.10;57.90
39601;DHT22;25297;44.758;11.310;2023-04-04T07:00:13;12.10;58.10
39601;DHT22;25297;44.758;11.310;2023-04-04T07:02:40;12.20;57.70
39601;DHT22;25297;44.758;11.310;2023-04-04T07:05:05;12.20;57.90
39601;DHT22;25297;44.758;11.310;2023-04-04T07:07:31;12.20;57.20
39601;DHT22;25297;44.758;11.310;2023-04-04T07:09:57;12.20;57.80
39601;DHT22;25297;44.758;11.310;2023-04-04T07:12:23;12.30;59.10
39601;DHT22;25297;44.758;11.310;2023-04-04T07:14:48;12.30;57.40
39601;DHT22;25297;44.758;11.310;2023-04-04T07:17:14;12.40;56.80
39601;DHT22;25297;44.758;11.310;2023-04-04T07:19:40;12.40;57.50
39601;DHT22;25297;44.758;11.310;2023-04-04T07:22:05;12.40;56.60
39601;DHT22;25297;44.758;11.310;2023-04-04T07:24:31;12.40;56.30
39601;DHT22;25297;44.758;11.310;2023-04-04T07:26:57;12.40;57.20
39601;DHT22;25297;44.758;11.310;2023-04-04T07:29:23;12.40;57.20
39601;DHT22;25297;44.758;11.310;2023-04-04T07:31:48;12.50;57.10
39601;DHT22;25297;44.758;11.310;2023-04-04T07:34:14;12.50;56.50
39601;DHT22;25297;44.758;11.310;2023-04-04T07:36:40;12.60;57.30
39601;DHT22;25297;44.758;11.310;2023-04-04T07:39:05;12.60;56.60
39601;DHT22;25297;44.758;11.310;2023-04-04T07:41:31;12.70;56.50
39601;DHT22;25297;44.758;11.310;2023-04-04T07:43:57;12.70;56.70
39601;DHT22;25297;44.758;11.310;2023-04-04T07:46:23;12.80;56.30
39601;DHT22;25297;44.758;11.310;2023-04-04T07:48:49;12.80;56.70
39601;DHT22;25297;44.758;11.310;2023-04-04T07:51:15;12.90;56.40
39601;DHT22;25297;44.758;11.310;2023-04-04T07:53:40;12.90;56.00
39601;DHT22;25297;44.758;11.310;2023-04-04T07:56:06;13.00;55.50
39601;DHT22;25297;44.758;11.310;2023-04-04T07:58:33;13.00;55.80
39601;DHT22;25297;44.758;11.310;2023-04-04T08:00:59;13.00;54.60
39601;DHT22;25297;44.758;11.310;2023-04-04T08:03:25;13.10;54.70
39601;DHT22;25297;44.758;11.310;2023-04-04T08:05:51;13.10;55.70
39601;DHT22;25297;44.758;11.310;2023-04-04T08:08:17;13.10;54.90
39601;DHT22;25297;44.758;11.310;2023-04-04T08:10:44;13.20;54.10
39601;DHT22;25297;44.758;11.310;2023-04-04T08:13:10;13.20;54.50
39601;DHT22;25297;44.758;11.310;2023-04-04T08:15:37;13.20;54.40
39601;DHT22;25297;44.758;11.310;2023-04-04T08:18:02;13.30;54.60
39601;DHT22;25297;44.758;11.310;2023-04-04T08:20:28;13.30;54.80
39601;DHT22;25297;44.758;11.310;2023-04-04T08:22:54;13.40;54.80
39601;DHT22;25297;44.758;11.310;2023-04-04T08:25:19;13.40;54.50
39601;DHT22;25297;44.758;11.310;2023-04-04T08:27:45;13.50;54.60
39601;DHT22;25297;44.758;11.310;2023-04-04T08:30:14;13.50;54.10
39601;DHT22;25297;44.758;11.310;2023-04-04T08:32:41;13.60;55.20
39601;DHT22;25297;44.758;11.310;2023-04-04T08:35:08;13.60;55.40
39601;DHT22;25297;44.758;11.310;2023-04-04T08:37:34;13.70;53.20
39601;DHT22;25297;44.758;11.310;2023-04-04T08:40:04;13.70;52.80
39601;DHT22;25297;44.758;11.310;2023-04-04T08:42:32;13.80;52.60
39601;DHT22;25297;44.758;11.310;2023-04-04T08:45:01;13.80;51.20
39601;DHT22;25297;44.758;11.310;2023-04-04T08:47:30;13.80;51.70
39601;DHT22;25297;44.758;11.310;2023-04-04T08:49:58;13.80;51.50
39601;DHT22;25297;44.758;11.310;2023-04-04T08:52:25;13.90;51.70
39601;DHT22;25297;44.758;11.310;2023-04-04T08:54:52;13.90;51.90
39601;DHT22;25297;44.758;11.310;2023-04-04T08:57:18;14.00;51.70
39601;DHT22;25297;44.758;11.310;2023-04-04T08:59:44;14.00;50.90
39601;DHT22;25297;44.758;11.310;2023-04-04T09:04:36;14.10;49.20
39601;DHT22;25297;44.758;11.310;2023-04-04T09:07:04;14.10;48.90
39601;DHT22;25297;44.758;11.310;2023-04-04T09:09:31;14.10;48.50
39601;DHT22;25297;44.758;11.310;2023-04-04T09:11:59;14.10;49.40
39601;DHT22;25297;44.758;11.310;2023-04-04T09:14:26;14.10;49.10
39601;DHT22;25297;44.758;11.310;2023-04-04T09:16:54;14.10;48.40
39601;DHT22;25297;44.758;11.310;2023-04-04T09:19:20;14.10;49.20
39601;DHT22;25297;44.758;11.310;2023-04-04T09:21:47;14.10;49.50
39601;DHT22;25297;44.758;11.310;2023-04-04T09:24:14;14.10;50.00
39601;DHT22;25297;44.758;11.310;2023-04-04T09:26:47;14.20;49.30
39601;DHT22;25297;44.758;11.310;2023-04-04T09:29:13;14.20;50.10
39601;DHT22;25297;44.758;11.310;2023-04-04T09:31:41;14.30;49.90
39601;DHT22;25297;44.758;11.310;2023-04-04T09:34:14;14.30;51.10
39601;DHT22;25297;44.758;11.310;2023-04-04T09:36:41;14.40;49.00
39601;DHT22;25297;44.758;11.310;2023-04-04T09:39:07;14.40;47.70
39601;DHT22;25297;44.758;11.310;2023-04-04T09:41:33;14.40;48.40
39601;DHT22;25297;44.758;11.310;2023-04-04T09:43:59;14.40;48.00
39601;DHT22;25297;44.758;11.310;2023-04-04T09:46:25;14.40;48.80
39601;DHT22;25297;44.758;11.310;2023-04-04T09:48:52;14.40;48.70
39601;DHT22;25297;44.758;11.310;2023-04-04T09:51:20;14.50;50.20
39601;DHT22;25297;44.758;11.310;2023-04-04T09:53:50;14.50;48.60
39601;DHT22;25297;44.758;11.310;2023-04-04T09:56:16;14.50;48.70
39601;DHT22;25297;44.758;11.310;2023-04-04T09:58:45;14.60;49.00
39601;DHT22;25297;44.758;11.310;2023-04-04T10:01:11;14.60;49.00
39601;DHT22;25297;44.758;11.310;2023-04-04T10:03:38;14.60;47.00
39601;DHT22;25297;44.758;11.310;2023-04-04T10:06:08;14.60;47.70
39601;DHT22;25297;44.758;11.310;2023-04-04T10:08:39;14.60;48.40
39601;DHT22;25297;44.758;11.310;2023-04-04T10:11:05;14.60;48.00
39601;DHT22;25297;44.758;11.310;2023-04-04T10:13:32;14.60;47.10
39601;DHT22;25297;44.758;11.310;2023-04-04T10:16:01;14.60;47.30
39601;DHT22;25297;44.758;11.310;2023-04-04T10:18:29;14.60;47.40
39601;DHT22;25297;44.758;11.310;2023-04-04T10:20:57;14.70;47.60
39601;DHT22;25297;44.758;11.310;2023-04-04T10:23:24;14.60;48.20
39601;DHT22;25297;44.758;11.310;2023-04-04T10:25:52;14.70;48.50
39601;DHT22;25297;44.758;11.310;2023-04-04T10:28:18;14.70;47.50
39601;DHT22;25297;44.758;11.310;2023-04-04T10:30:56;14.70;46.40
39601;DHT22;25297;44.758;11.310;2023-04-04T10:36:02;14.70;47.80
39601;DHT22;25297;44.758;11.310;2023-04-04T10:38:39;14.70;48.20
39601;DHT22;25297;44.758;11.310;2023-04-04T10:41:06;14.80;47.40
39601;DHT22;25297;44.758;11.310;2023-04-04T10:43:34;14.90;47.60
39601;DHT22;25297;44.758;11.310;2023-04-04T10:46:09;14.80;46.50
39601;DHT22;25297;44.758;11.310;2023-04-04T10:48:36;14.90;46.10
39601;DHT22;25297;44.758;11.310;2023-04-04T10:51:03;14.90;47.50
39601;DHT22;25297;44.758;11.310;2023-04-04T10:53:30;14.90;46.90
39601;DHT22;25297;44.758;11.310;2023-04-04T10:55:57;15.00;46.60
39601;DHT22;25297;44.758;11.310;2023-04-04T10:58:23;15.00;46.30
39601;DHT22;25297;44.758;11.310;2023-04-04T11:00:52;15.00;45.90
39601;DHT22;25297;44.758;11.310;2023-04-04T11:03:20;15.00;46.70
39601;DHT22;25297;44.758;11.310;2023-04-04T11:05:45;15.00;47.00
39601;DHT22;25297;44.758;11.310;2023-04-04T11:08:21;15.10;46.90
39601;DHT22;25297;44.758;11.310;2023-04-04T11:10:48;15.10;47.10
39601;DHT22;25297;44.758;11.310;2023-04-04T11:16:00;15.20;47.10
39601;DHT22;25297;44.758;11.310;2023-04-04T11:21:03;15.20;47.50
39601;DHT22;25297;44.758;11.310;2023-04-04T11:29:05;15.30;45.90
39601;DHT22;25297;44.758;11.310;2023-04-04T11:31:43;15.30;46.10
39601;DHT22;25297;44.758;11.310;2023-04-04T11:34:14;15.30;46.20
39601;DHT22;25297;44.758;11.310;2023-04-04T11:41:56;15.40;45.80
39601;DHT22;25297;44.758;11.310;2023-04-04T11:44:24;15.40;45.90
39601;DHT22;25297;44.758;11.310;2023-04-04T11:47:19;15.40;46.10
39601;DHT22;25297;44.758;11.310;2023-04-04T11:49:45;15.40;45.50
39601;DHT22;25297;44.758;11.310;2023-04-04T11:52:13;15.50;46.90
39601;DHT22;25297;44.758;11.310;2023-04-04T11:54:41;15.50;47.30
39601;DHT22;25297;44.758;11.310;2023-04-04T11:57:14;15.50;47.40
39601;DHT22;25297;44.758;11.310;2023-04-04T11:59:42;15.60;47.20
39601;DHT22;25297;44.758;11.310;2023-04-04T12:02:08;15.60;46.40
39601;DHT22;25297;44.758;11.310;2023-04-04T12:04:35;15.60;46.50
39601;DHT22;25297;44.758;11.310;2023-04-04T12:07:02;15.70;46.60
39601;DHT22;25297;44.758;11.310;2023-04-04T12:09:31;15.70;46.70
39601;DHT22;25297;44.758;11.310;2023-04-04T12:11:57;15.70;46.50
39601;DHT22;25297;44.758;11.310;2023-04-04T12:14:23;15.70;46.40
39601;DHT22;25297;44.758;11.310;2023-04-04T12:16:52;15.80;47.40
39601;DHT22;25297;44.758;11.310;2023-04-04T12:19:18;15.70;45.80
39601;DHT22;25297;44.758;11.310;2023-04-04T12:21:48;15.80;46.60
39601;DHT22;25297;44.758;11.310;2023-04-04T12:24:15;15.80;47.30
39601;DHT22;25297;44.758;11.310;2023-04-04T12:26:46;15.80;48.30
39601;DHT22;25297;44.758;11.310;2023-04-04T12:29:13;15.90;48.00
39601;DHT22;25297;44.758;11.310;2023-04-04T12:31:41;15.90;47.90
39601;DHT22;25297;44.758;11.310;2023-04-04T12:34:21;15.90;47.40
39601;DHT22;25297;44.758;11.310;2023-04-04T12:36:51;15.90;46.40
39601;DHT22;25297;44.758;11.310;2023-04-04T12:39:18;15.90;47.10
39601;DHT22;25297;44.758;11.310;2023-04-04T12:42:03;15.90;47.20
39601;DHT22;25297;44.758;11.310;2023-04-04T12:44:34;15.90;47.30
39601;DHT22;25297;44.758;11.310;2023-04-04T12:47:05;16.00;47.50
39601;DHT22;25297;44.758;11.310;2023-04-04T12:49:39;16.00;47.80
39601;DHT22;25297;44.758;11.310;2023-04-04T12:52:06;16.00;47.30
39601;DHT22;25297;44.758;11.310;2023-04-04T12:54:40;16.10;47.10
39601;DHT22;25297;44.758;11.310;2023-04-04T12:57:07;16.00;47.00
39601;DHT22;25297;44.758;11.310;2023-04-04T12:59:34;16.00;47.30
39601;DHT22;25297;44.758;11.310;2023-04-04T13:02:09;16.10;47.90
39601;DHT22;25297;44.758;11.310;2023-04-04T13:04:35;16.10;47.20
39601;DHT22;25297;44.758;11.310;2023-04-04T13:07:02;16.10;46.50
39601;DHT22;25297;44.758;11.310;2023-04-04T13:09:28;16.10;46.90
39601;DHT22;25297;44.758;11.310;2023-04-04T13:12:04;16.10;47.30
39601;DHT22;25297;44.758;11.310;2023-04-04T13:17:47;16.10;46.60
39601;DHT22;25297;44.758;11.310;2023-04-04T13:20:14;16.10;46.70
39601;DHT22;25297;44.758;11.310;2023-04-04T13:22:40;16.10;46.10
39601;DHT22;25297;44.758;11.310;2023-04-04T13:25:07;16.10;46.30
39601;DHT22;25297;44.758;11.310;2023-04-04T13:27:35;16.10;46.40
39601;DHT22;25297;44.758;11.310;2023-04-04T13:30:05;16.10;46.80
39601;DHT22;25297;44.758;11.310;2023-04-04T13:32:30;16.10;45.70
39601;DHT22;25297;44.758;11.310;2023-04-04T13:34:56;16.10;46.10
39601;DHT22;25297;44.758;11.310;2023-04-04T13:37:22;16.10;45.70
39601;DHT22;25297;44.758;11.310;2023-04-04T13:39:49;16.10;46.10
39601;DHT22;25297;44.758;11.310;2023-04-04T13:42:14;16.10;46.80
39601;DHT22;25297;44.758;11.310;2023-04-04T13:44:40;16.10;45.80
39601;DHT22;25297;44.758;11.310;2023-04-04T13:47:06;16.10;45.30
39601;DHT22;25297;44.758;11.310;2023-04-04T13:49:31;16.20;45.60
39601;DHT22;25297;44.758;11.310;2023-04-04T13:51:57;16.10;46.20
39601;DHT22;25297;44.758;11.310;2023-04-04T13:54:22;16.10;45.90
39601;DHT22;25297;44.758;11.310;2023-04-04T13:56:48;16.10;45.50
39601;DHT22;25297;44.758;11.310;2023-04-04T13:59:14;16.10;46.00
39601;DHT22;25297;44.758;11.310;2023-04-04T14:01:40;16.10;45.60
39601;DHT22;25297;44.758;11.310;2023-04-04T14:04:05;16.10;45.60
39601;DHT22;25297;44.758;11.310;2023-04-04T14:06:31;16.10;45.50
39601;DHT22;25297;44.758;11.310;2023-04-04T14:08:57;16.10;45.50
39601;DHT22;25297;44.758;11.310;2023-04-04T14:11:23;16.10;45.30
39601;DHT22;25297;44.758;11.310;2023-04-04T14:13:50;16.10;45.40
39601;DHT22;25297;44.758;11.310;2023-04-04T14:16:16;16.10;45.90
39601;DHT22;25297;44.758;11.310;2023-04-04T14:18:42;16.10;45.80
39601;DHT22;25297;44.758;11.310;2023-04-04T14:21:09;16.10;46.80
39601;DHT22;25297;44.758;11.310;2023-04-04T14:23:34;16.10;46.40
39601;DHT22;25297;44.758;11.310;2023-04-04T14:26:00;16.20;45.30
39601;DHT22;25297;44.758;11.310;2023-04-04T14:28:27;16.10;44.70
39601;DHT22;25297;44.758;11.310;2023-04-04T14:30:52;16.10;45.00
39601;DHT22;25297;44.758;11.310;2023-04-04T14:33:18;16.10;45.40
39601;DHT22;25297;44.758;11.310;2023-04-04T14:35:44;16.10;45.20
39601;DHT22;25297;44.758;11.310;2023-04-04T14:38:10;16.00;45.10
39601;DHT22;25297;44.758;11.310;2023-04-04T14:40:35;16.00;44.90
39601;DHT22;25297;44.758;11.310;2023-04-04T14:43:01;16.00;45.00
39601;DHT22;25297;44.758;11.310;2023-04-04T14:45:27;16.00;44.70
39601;DHT22;25297;44.758;11.310;2023-04-04T14:47:53;16.00;44.80
39601;DHT22;25297;44.758;11.310;2023-04-04T14:50:19;16.00;45.20
39601;DHT22;25297;44.758;11.310;2023-04-04T14:52:45;16.00;44.20
39601;DHT22;25297;44.758;11.310;2023-04-04T14:55:15;16.00;44.20
39601;DHT22;25297;44.758;11.310;2023-04-04T14:57:41;15.90;45.00
39601;DHT22;25297;44.758;11.310;2023-04-04T15:00:10;15.90;45.60
39601;DHT22;25297;44.758;11.310;2023-04-04T15:02:35;15.90;44.70
39601;DHT22;25297;44.758;11.310;2023-04-04T15:05:01;15.90;45.00
39601;DHT22;25297;44.758;11.310;2023-04-04T15:07:27;15.90;45.10
39601;DHT22;25297;44.758;11.310;2023-04-04T15:09:53;15.90;43.80
39601;DHT22;25297;44.758;11.310;2023-04-04T15:12:18;15.90;44.20
39601;DHT22;25297;44.758;11.310;2023-04-04T15:14:44;15.80;45.40
39601;DHT22;25297;44.758;11.310;2023-04-04T15:17:10;15.80;44.30
39601;DHT22;25297;44.758;11.310;2023-04-04T15:19:36;15.80;44.10
39601;DHT22;25297;44.758;11.310;2023-04-04T15:22:03;15.80;44.80
39601;DHT22;25297;44.758;11.310;2023-04-04T15:24:28;15.80;43.80
39601;DHT22;25297;44.758;11.310;2023-04-04T15:26:54;15.70;44.30
39601;DHT22;25297;44.758;11.310;2023-04-04T15:29:20;15.70;44.30
39601;DHT22;25297;44.758;11.310;2023-04-04T15:31:46;15.70;45.80
39601;DHT22;25297;44.758;11.310;2023-04-04T15:34:12;15.80;45.50
39601;DHT22;25297;44.758;11.310;2023-04-04T15:36:37;15.80;45.50
39601;DHT22;25297;44.758;11.310;2023-04-04T15:39:03;15.80;45.30
39601;DHT22;25297;44.758;11.310;2023-04-04T15:41:28;15.70;44.30
39601;DHT22;25297;44.758;11.310;2023-04-04T15:43:54;15.70;43.80